x

Santa Monica Basin - 33nm Wsw Of Santa Monica, Ca (46025) Wave Buoy

4:50 - Mon 29th Dec 2014 All times are PST. -8 hours from GMT.

  • Sig Wave height 2.0ft
  • Swell Direction
  • Peak Period 14s
  • Average Period 5s
  • Wind
    2mph, 7mph gusts
  • Sea Temp 62°f
  • Luft Temp 57°f
  • Sea Pressure 1020mb
  • Santa Monica Basin - 33nm Wsw Of Santa Monica, Ca
  • Santa Monica Basin - 33nm Wsw Of Santa Monica, Ca

More Historic Weather Station data

Upgrade to MSW Pro to gain access to the past 30 days of data for over 8000 Wavebouys and Weather Stations around the globe.

Join Pro

Comparision Forecast

View Surf forecast
   
Mo 12/29 4:50 2ft 14s 5s 2 7 mph 1020mb 62f 57f
3:50 2ft 14s 5s 4
mph
1020.3mb 62f 57f
2:50 2ft 14s 6s 4 7 mph 1020.7mb 62f 57f
1:50 2ft 14s 5s 7 9 mph 1020.8mb 62f 57f
12:50 2ft 14s 5s 7 9 mph 1021mb 62f 57f
So 12/28 11:50 2ft 14s 5s 7 9 mph 1021.6mb 63f 58f
10:50 2ft 14s 5s 7
mph
1022.2mb 63f 58f
9:50 2ft 14s 5s 7 9 mph 1022.6mb 63f 58f
8:50 2ft 14s 5s 7 9 mph 1022.5mb 63f 58f
7:50 2ft 14s 5s 2 4 mph 1022.3mb 63f 58f
6:50 2ft 15s 5s 4 7 mph 1022.1mb 63f 58f
5:50 2ft 14s 5s 11 13 mph 1022.1mb 63f 58f
4:50 1.6ft 15s 4s 13 16 mph 1021.8mb 63f 58f
3:50 1.6ft 14s 5s 11 16 mph 1022mb 63f 58f
2:50 1.6ft 11s 5s 11 13 mph 1021.9mb 63f 58f
1:50 2ft 14s 5s 7 11 mph 1022.2mb 63f 58f
12:50 2ft 14s 5s 2 4 mph 1023.1mb 63f 58f
11:50 2ft 13s 5s  -  2 mph 1024.1mb 63f 58f
10:50 1.6ft 15s 5s 2
mph
1024.9mb 63f 58f
9:50 1.6ft 14s 6s  -  2 mph 1025.5mb 62f 58f
8:50 1.6ft 14s 6s  -  2 mph 1025.2mb 62f 57f
7:50 1.6ft 14s 6s 2 4 mph 1024.8mb 62f 57f
6:50 1.3ft 12s 6s 4 9 mph 1024.7mb 62f 57f
5:50 1.6ft 15s 6s 7 9 mph 1024.4mb 62f 57f
4:50 1.6ft 12s 6s 9
mph
1024.4mb 62f 57f
3:50 1.6ft 11s 6s 9 11 mph 1024.8mb 62f 58f
2:50 1.6ft 13s 5s 9 11 mph 1025.2mb 62f 58f
1:50 1.6ft 13s 4s 9 11 mph 1025.5mb 62f 58f
12:50 2ft 12s 4s 11 13 mph 1025.9mb 62f 58f
Sa 12/27 11:50 2.5ft 4s 4s 13 16 mph 1026.4mb 62f 59f
10:50 2ft 9s 4s 13 16 mph 1026.8mb 62f 59f
9:50 1.6ft 9s 4s 13 16 mph 1027.1mb 63f 59f
8:50 1.6ft 8s 5s 16 18 mph 1027.2mb 63f 59f
7:50 1.6ft 13s 6s 9 11 mph 1026.9mb 63f 60f
6:50 1.6ft 13s 7s 7 9 mph 1027.1mb 63f 59f
5:50 1.6ft 13s 7s 7 9 mph 1026.7mb 63f 58f
4:50 2ft 12s 6s 9 11 mph 1026.3mb 63f 58f
3:50 2ft 13s 6s 9
mph
1026.1mb 63f 59f
2:50 2ft 10s 6s 7
mph
1025.9mb 63f 58f
1:50 2ft 13s 5s 2 4 mph 1025.9mb 63f 58f
12:50 2ft 13s 5s 4 7 mph 1026.1mb 63f 58f
11:50 2.5ft 14s 5s 4 7 mph 1027.1mb 63f 57f
10:50 2.5ft 12s 5s 7 9 mph 1027.9mb 63f 57f
9:50 3ft 4s 4s 11 16 mph 1027.7mb 63f 57f
8:50 3ft 4s 4s 11 13 mph 1026.7mb 63f 57f
7:50 3.5ft 4s 4s 13 18 mph 1025.7mb 63f 57f
6:50 3.5ft 4s 4s 13 18 mph 1025.1mb 63f 57f
5:50 3.5ft 4s 4s 13 16 mph 1024.7mb 63f 57f
4:50 3.5ft 13s 4s 18 20 mph 1024.3mb 63f 58f
2:50 2.5ft 3s 4s 16 18 mph 1023.5mb 63f 58f
1:50 3ft 4s 4s 13 16 mph 1023mb 63f 59f
12:50 3ft 14s 4s 18 20 mph 1022.7mb 63f 58f
Fr 12/26 11:50 3.5ft 4s 4s 13 18 mph 1022.6mb 63f 59f
10:50 2.5ft 14s 4s 16 18 mph 1022.7mb 63f 59f
9:50 3ft 14s 5s 13 18 mph 1022.1mb 63f 60f
8:50 3.5ft 14s 5s 13 16 mph 1021.9mb 63f 59f
7:50 3.5ft 12s 5s 18 22 mph 1021.1mb 63f 60f
6:50 3.5ft 14s 5s 16 20 mph 1020.7mb 63f 60f
5:50 3.5ft 12s 7s 16 20 mph 1019.8mb 63f 60f
4:50 3ft 13s 7s 4 7 mph 1019.3mb 63f 59f
3:50 3.5ft 13s 7s 7 9 mph 1018.7mb 63f 60f
2:50 3.5ft 14s 6s 7
mph
1018.6mb 63f 60f
12:50 3.5ft 14s 6s 4 7 mph 1018.2mb 63f 60f
11:50 3.5ft 14s 5s 11 13 mph 1018.9mb 63f 58f
10:50 4ft 5s 5s 13 18 mph 1019.4mb 62f 57f
9:50 5ft 5s 5s 20 27 mph 1019.3mb 63f 57f
8:50 5ft 5s 5s 22 27 mph 1018mb 63f 58f
7:50 5ft 5s 5s 22 27 mph 1017.5mb 63f 58f
6:50 5ft 5s 5s 22 29 mph 1016.9mb 63f 58f
5:50 5.5ft 5s 5s 22 27 mph 1016.1mb 63f 58f
4:50 5.5ft 5s 5s 25 29 mph 1015.4mb 63f 58f
3:50 5.5ft 5s 5s 25 31 mph 1014.6mb 63f 58f
2:50 6ft 5s 5s 27 31 mph 1014.1mb 63f 58f
1:50 5ft 13s 5s 22 27 mph 1014.4mb 63f 58f
12:50 5.5ft 5s 5s 25 29 mph 1013.9mb 63f 58f
Do 12/25 11:50 4.5ft 14s 5s 22 27 mph 1014mb 63f 59f
10:50 4.5ft 15s 5s 20 27 mph 1014.4mb 63f 60f
9:50 4.5ft 15s 6s 18 20 mph 1014.1mb 63f 60f
8:50 5ft 15s 6s 11
mph
1013.9mb 63f 60f
7:50 5ft 15s 7s 13 16 mph 1013.4mb 63f 60f
6:50 5ft 15s 6s 9 11 mph 1012.8mb 63f 61f
5:50 5ft 15s 7s 13 16 mph 1012.3mb 63f 60f
4:50 5ft 14s 7s 11 16 mph 1011.9mb 63f 60f
3:50 5ft 14s 7s 11 16 mph 1011.8mb 63f 60f
2:50 5.5ft 15s 7s 11 16 mph 1011.5mb 63f 60f
1:50 5ft 15s 6s 11 13 mph 1011.3mb 63f 60f